Terminal Aerodrome Forecast
Issued by NWS Jackson, MS

Home | Current Version | Previous Version | Text Only | Print | Product List | Glossary On
Versions: 1 2 3 4 5 6 7 8 9 10 11 12
893
FTUS44 KMEG 261138
TAFTUP
TAF
KTUP 261138Z 2612/2712 17008KT P6SM BKN035
     FM261600 19012G21KT P6SM SCT035
     FM270200 18020G32KT P6SM VCTS OVC030CB
      TEMPO 2703/2704 27020G30KT 1 1/2SM TSRA OVC015CB
     FM270500 28012G20KT P6SM VCSH SCT015 OVC050
     FM270900 30008KT P6SM FEW009 BKN015=

USA.gov is the U.S. government's official web portal to all federal, state and local government web resources and services.